Time;durP1;ratioP1;P1;durP2;ratioP2;P2;SDS_P1;SDS_P2;PMS_P1;PMS_P2;Temp;Humidity;BMP_temperature;BMP_pressure;BME280_temperature;BME280_humidity;BME280_pressure;Samples;Min_cycle;Max_cycle;Signal;HPM_P1;HPM_P2
2022/09/05 00:00:58;;;;;;;58.93;3.60;;;;;;;;;;5074339;28;20862;-65
2022/09/05 00:03:28;;;;;;;59.40;3.50;;;;;;;;;;5074092;28;20483;-65
2022/09/05 00:06:00;;;;;;;60.90;3.50;;;;;;;;;;5074395;28;20796;-65
2022/09/05 00:08:31;;;;;;;58.97;3.83;;;;;;;;;;5073954;28;20445;-65
2022/09/05 00:11:05;;;;;;;59.40;3.60;;;;;;;;;;5074177;28;20936;-65
2022/09/05 00:13:35;;;;;;;59.63;4.30;;;;;;;;;;5074212;28;20490;-65
2022/09/05 00:16:25;;;;;;;59.97;3.67;;;;;;;;;;5074142;28;20930;-65
2022/09/05 00:18:58;;;;;;;60.27;4.07;;;;;;;;;;5073932;28;20449;-65
2022/09/05 00:21:32;;;;;;;60.20;4.20;;;;;;;;;;5074119;28;20859;-65
2022/09/05 00:24:10;;;;;;;61.30;4.27;;;;;;;;;;5073863;28;20854;-65
2022/09/05 00:26:43;;;;;;;59.30;3.70;;;;;;;;;;5073957;28;20447;-65
2022/09/05 00:29:18;;;;;;;60.13;3.80;;;;;;;;;;5071198;28;20460;-65
2022/09/05 00:31:51;;;;;;;61.97;4.23;;;;;;;;;;5074110;28;20544;-65
2022/09/05 00:34:23;;;;;;;63.10;4.20;;;;;;;;;;5073614;28;20467;-65
2022/09/05 00:36:53;;;;;;;59.50;3.70;;;;;;;;;;5073758;28;20455;-65
2022/09/05 00:39:22;;;;;;;60.00;4.80;;;;;;;;;;5073086;28;20448;-65
2022/09/05 00:41:50;;;;;;;59.17;3.50;;;;;;;;;;5073423;28;20449;-65
2022/09/05 00:44:19;;;;;;;59.80;4.00;;;;;;;;;;5073254;28;21003;-65
2022/09/05 00:46:51;;;;;;;60.33;3.67;;;;;;;;;;5073616;28;20445;-65
2022/09/05 00:49:22;;;;;;;59.47;3.77;;;;;;;;;;5072844;28;20447;-65
2022/09/05 00:51:51;;;;;;;61.67;4.27;;;;;;;;;;5073333;28;20455;-65
2022/09/05 00:54:24;;;;;;;60.00;3.90;;;;;;;;;;5073214;28;20475;-65
2022/09/05 00:56:58;;;;;;;60.03;3.77;;;;;;;;;;5073390;28;20538;-65
2022/09/05 00:59:43;;;;;;;59.87;3.80;;;;;;;;;;5071643;28;20448;-65
2022/09/05 01:02:17;;;;;;;58.90;3.60;;;;;;;;;;5053410;28;20530;-65
2022/09/05 01:04:49;;;;;;;59.63;3.30;;;;;;;;;;5053134;28;20486;-65
2022/09/05 01:07:26;;;;;;;59.10;3.50;;;;;;;;;;5053413;28;20456;-65
2022/09/05 01:10:02;;;;;;;59.67;3.60;;;;;;;;;;5052464;28;20450;-65
2022/09/05 01:12:41;;;;;;;61.37;4.90;;;;;;;;;;5052974;28;20575;-66
2022/09/05 01:15:23;;;;;;;59.30;3.50;;;;;;;;;;5052876;28;21038;-65
2022/09/05 01:18:06;;;;;;;60.67;3.90;;;;;;;;;;5049985;28;20468;-65
2022/09/05 01:20:42;;;;;;;59.20;3.70;;;;;;;;;;5052575;28;20454;-66
2022/09/05 01:23:39;;;;;;;59.60;3.60;;;;;;;;;;5052857;28;20468;-65
2022/09/05 01:26:15;;;;;;;59.77;3.97;;;;;;;;;;5052904;28;20445;-65
2022/09/05 01:28:50;;;;;;;59.67;4.13;;;;;;;;;;5052575;28;20479;-66
2022/09/05 01:31:23;;;;;;;59.30;3.90;;;;;;;;;;5052551;28;20803;-65
2022/09/05 01:33:53;;;;;;;59.17;3.47;;;;;;;;;;5052742;28;20490;-66
2022/09/05 01:36:33;;;;;;;59.47;3.80;;;;;;;;;;5052856;28;20460;-65
2022/09/05 01:39:03;;;;;;;59.10;3.90;;;;;;;;;;5062611;28;20541;-65
2022/09/05 01:41:34;;;;;;;59.50;3.90;;;;;;;;;;5069745;28;20449;-66
2022/09/05 01:44:27;;;;;;;58.87;3.40;;;;;;;;;;5072493;28;20956;-65
2022/09/05 01:46:57;;;;;;;59.47;3.70;;;;;;;;;;5072376;28;20542;-65
2022/09/05 01:49:33;;;;;;;59.97;4.00;;;;;;;;;;5071490;28;20451;-65
2022/09/05 01:52:14;;;;;;;60.43;3.70;;;;;;;;;;5072386;28;20973;-65
2022/09/05 01:54:48;;;;;;;59.57;3.60;;;;;;;;;;5071714;28;20483;-65
2022/09/05 01:57:19;;;;;;;59.47;3.73;;;;;;;;;;5072091;28;20451;-65
2022/09/05 01:59:50;;;;;;;59.80;3.67;;;;;;;;;;5071776;28;20959;-65
2022/09/05 02:02:33;;;;;;;59.80;4.43;;;;;;;;;;5071945;28;20456;-65
2022/09/05 02:05:09;;;;;;;58.80;3.13;;;;;;;;;;5072250;28;20443;-65
2022/09/05 02:07:45;;;;;;;59.47;3.30;;;;;;;;;;5071884;28;20447;-65
2022/09/05 02:10:19;;;;;;;60.40;3.80;;;;;;;;;;5070289;28;20454;-66
2022/09/05 02:12:48;;;;;;;59.23;3.83;;;;;;;;;;5072198;28;20467;-66
2022/09/05 02:15:18;;;;;;;60.00;3.93;;;;;;;;;;5072009;28;20482;-65
2022/09/05 02:17:49;;;;;;;60.30;4.57;;;;;;;;;;5072038;28;20447;-65
2022/09/05 02:20:18;;;;;;;59.17;3.57;;;;;;;;;;5071797;28;20451;-66
2022/09/05 02:22:49;;;;;;;58.97;3.40;;;;;;;;;;5071913;28;20471;-65
2022/09/05 02:25:18;;;;;;;58.97;3.53;;;;;;;;;;5071898;28;20534;-65
2022/09/05 02:27:50;;;;;;;59.00;3.50;;;;;;;;;;5072005;28;20543;-65
2022/09/05 02:30:20;;;;;;;59.57;4.07;;;;;;;;;;5071679;28;20454;-65
2022/09/05 02:32:58;;;;;;;61.07;3.97;;;;;;;;;;5072100;28;20490;-65
2022/09/05 02:35:30;;;;;;;59.90;3.60;;;;;;;;;;5071925;28;20510;-65
2022/09/05 02:38:02;;;;;;;60.77;3.73;;;;;;;;;;5071973;28;20455;-65
2022/09/05 02:40:32;;;;;;;59.90;4.00;;;;;;;;;;5071601;28;20459;-65
2022/09/05 02:43:03;;;;;;;59.60;3.73;;;;;;;;;;5071795;28;20474;-65
2022/09/05 02:45:38;;;;;;;59.57;3.87;;;;;;;;;;5071964;28;20435;-66
2022/09/05 02:48:09;;;;;;;59.77;3.97;;;;;;;;;;5071640;28;20443;-65
2022/09/05 02:50:42;;;;;;;59.20;3.70;;;;;;;;;;5071688;28;20536;-65
2022/09/05 02:53:10;;;;;;;60.27;3.80;;;;;;;;;;5071798;28;20463;-65
2022/09/05 02:55:55;;;;;;;59.80;3.60;;;;;;;;;;5071618;28;20495;-65
2022/09/05 02:58:32;;;;;;;59.37;3.60;;;;;;;;;;5071771;28;20526;-65
2022/09/05 03:01:05;;;;;;;59.13;3.50;;;;;;;;;;5071779;28;20450;-65
2022/09/05 03:03:35;;;;;;;59.60;3.73;;;;;;;;;;5071754;28;20479;-65
2022/09/05 03:06:09;;;;;;;61.57;4.70;;;;;;;;;;5075303;28;20444;-65
2022/09/05 03:08:44;;;;;;;59.10;3.20;;;;;;;;;;5075611;28;20453;-65
2022/09/05 03:11:29;;;;;;;60.13;4.37;;;;;;;;;;5075675;28;20454;-65
2022/09/05 03:14:14;;;;;;;59.30;3.50;;;;;;;;;;5075473;28;20493;-65
2022/09/05 03:16:58;;;;;;;59.60;3.50;;;;;;;;;;5075395;28;20447;-65
2022/09/05 03:19:44;;;;;;;60.73;4.03;;;;;;;;;;5075379;28;20816;-65
2022/09/05 03:22:35;;;;;;;59.90;3.70;;;;;;;;;;5075309;28;20443;-65
2022/09/05 03:25:20;;;;;;;58.57;3.20;;;;;;;;;;5075125;28;20523;-65
2022/09/05 03:28:17;;;;;;;59.60;3.40;;;;;;;;;;5065281;28;20455;-65
2022/09/05 03:30:56;;;;;;;59.27;3.77;;;;;;;;;;5012900;28;20940;-65
2022/09/05 03:33:46;;;;;;;60.30;4.67;;;;;;;;;;5065724;28;20574;-65
2022/09/05 03:36:38;;;;;;;59.00;3.17;;;;;;;;;;5075262;28;20466;-65
2022/09/05 03:39:23;;;;;;;59.80;3.60;;;;;;;;;;5074846;28;20451;-65
2022/09/05 03:41:58;;;;;;;59.07;3.70;;;;;;;;;;5074867;28;20446;-65
2022/09/05 03:44:33;;;;;;;58.90;3.50;;;;;;;;;;5074814;28;20458;-65
2022/09/05 03:47:14;;;;;;;59.07;3.43;;;;;;;;;;5075117;28;20442;-65
2022/09/05 03:49:48;;;;;;;59.10;3.40;;;;;;;;;;5074495;28;20449;-65
2022/09/05 03:52:21;;;;;;;63.97;3.57;;;;;;;;;;5074648;28;20454;-65
2022/09/05 03:54:57;;;;;;;59.57;3.70;;;;;;;;;;5074495;28;20479;-65
2022/09/05 03:57:39;;;;;;;62.70;4.40;;;;;;;;;;5074842;28;20447;-65
2022/09/05 04:00:08;;;;;;;59.70;3.90;;;;;;;;;;5074373;28;20949;-65
2022/09/05 04:02:44;;;;;;;58.73;3.13;;;;;;;;;;5074594;28;20474;-65
2022/09/05 04:05:15;;;;;;;59.93;3.83;;;;;;;;;;5074534;28;20441;-65
2022/09/05 04:07:43;;;;;;;59.30;3.83;;;;;;;;;;5074395;28;20939;-65
2022/09/05 04:10:21;;;;;;;66.47;4.03;;;;;;;;;;5074392;28;20470;-65
2022/09/05 04:12:50;;;;;;;59.40;4.10;;;;;;;;;;5074325;28;20471;-66
2022/09/05 04:15:26;;;;;;;59.90;4.10;;;;;;;;;;5074228;28;20486;-65
2022/09/05 04:17:55;;;;;;;60.63;3.70;;;;;;;;;;5074019;28;20448;-65
2022/09/05 04:20:30;;;;;;;59.50;4.13;;;;;;;;;;5074132;28;20447;-65
2022/09/05 04:23:05;;;;;;;59.50;3.90;;;;;;;;;;5074111;28;20479;-65
2022/09/05 04:25:40;;;;;;;59.40;3.50;;;;;;;;;;5074048;28;20534;-65
2022/09/05 04:28:16;;;;;;;59.33;3.40;;;;;;;;;;5074044;28;20969;-65
2022/09/05 04:30:46;;;;;;;59.80;3.90;;;;;;;;;;5074003;28;20817;-65
2022/09/05 04:33:19;;;;;;;61.17;4.90;;;;;;;;;;5074106;28;20855;-65
2022/09/05 04:35:51;;;;;;;59.90;3.83;;;;;;;;;;5073926;28;20483;-65
2022/09/05 04:38:18;;;;;;;59.73;3.90;;;;;;;;;;5074092;28;20808;-65
2022/09/05 04:40:48;;;;;;;59.67;3.93;;;;;;;;;;5073835;28;20538;-65
2022/09/05 04:43:25;;;;;;;59.20;3.57;;;;;;;;;;5073647;28;20471;-65
2022/09/05 04:45:54;;;;;;;59.40;3.60;;;;;;;;;;5073796;28;20530;-65
2022/09/05 04:48:24;;;;;;;60.57;4.40;;;;;;;;;;5073475;28;20452;-65
2022/09/05 04:51:07;;;;;;;59.20;3.70;;;;;;;;;;5073619;28;20440;-65
2022/09/05 04:53:37;;;;;;;59.67;4.33;;;;;;;;;;5073729;28;20467;-65
2022/09/05 04:56:08;;;;;;;60.00;4.20;;;;;;;;;;5073456;28;21073;-65
2022/09/05 04:58:37;;;;;;;60.30;3.60;;;;;;;;;;5073687;28;20451;-65
2022/09/05 05:01:07;;;;;;;59.57;3.57;;;;;;;;;;5073526;28;20543;-65
2022/09/05 05:03:35;;;;;;;59.63;4.00;;;;;;;;;;5073200;28;20476;-65
2022/09/05 05:06:03;;;;;;;60.40;4.90;;;;;;;;;;5073418;28;20443;-65
2022/09/05 05:08:34;;;;;;;61.20;3.93;;;;;;;;;;5073130;28;20470;-65
2022/09/05 05:11:04;;;;;;;60.17;3.70;;;;;;;;;;5073371;28;20814;-65
2022/09/05 05:13:34;;;;;;;59.00;3.60;;;;;;;;;;5072753;28;20471;-65
2022/09/05 05:16:04;;;;;;;61.07;4.27;;;;;;;;;;5073508;28;20483;-65
2022/09/05 05:18:35;;;;;;;60.90;4.23;;;;;;;;;;5072964;28;20444;-65
2022/09/05 05:21:04;;;;;;;59.20;3.40;;;;;;;;;;5073102;28;20447;-65
2022/09/05 05:23:37;;;;;;;59.77;3.63;;;;;;;;;;5072913;28;20464;-66
2022/09/05 05:26:06;;;;;;;60.07;4.13;;;;;;;;;;5072929;28;20458;-65
2022/09/05 05:28:42;;;;;;;60.43;4.00;;;;;;;;;;5071795;28;20452;-65
2022/09/05 05:31:12;;;;;;;60.03;4.13;;;;;;;;;;5072999;28;20454;-65
2022/09/05 05:33:40;;;;;;;60.30;3.87;;;;;;;;;;5072797;28;20983;-66
2022/09/05 05:36:08;;;;;;;63.50;4.73;;;;;;;;;;5072608;28;20487;-66
2022/09/05 05:38:40;;;;;;;60.33;4.73;;;;;;;;;;5072323;28;20454;-66
2022/09/05 05:41:11;;;;;;;60.07;3.90;;;;;;;;;;5072960;28;20458;-65
2022/09/05 05:43:40;;;;;;;60.07;3.93;;;;;;;;;;5072551;28;20474;-66
2022/09/05 05:46:08;;;;;;;59.67;3.90;;;;;;;;;;5072678;28;20812;-66
2022/09/05 05:48:38;;;;;;;59.97;4.27;;;;;;;;;;5072132;28;20460;-66
2022/09/05 05:51:12;;;;;;;60.20;4.60;;;;;;;;;;5072435;28;20462;-65
2022/09/05 05:53:45;;;;;;;61.30;4.00;;;;;;;;;;5072513;28;20471;-65
2022/09/05 05:56:23;;;;;;;60.97;4.20;;;;;;;;;;5072363;28;20490;-66
2022/09/05 05:58:55;;;;;;;59.30;4.13;;;;;;;;;;5072055;28;20539;-65
2022/09/05 06:01:38;;;;;;;59.77;4.10;;;;;;;;;;5072137;28;20531;-65
2022/09/05 06:04:23;;;;;;;60.37;4.57;;;;;;;;;;5072484;28;20535;-66
2022/09/05 06:06:56;;;;;;;59.77;3.90;;;;;;;;;;5071974;28;20533;-66
2022/09/05 06:09:41;;;;;;;60.20;4.60;;;;;;;;;;5071868;28;20456;-66
2022/09/05 06:12:26;;;;;;;58.90;3.20;;;;;;;;;;5072261;28;20467;-66
2022/09/05 06:15:08;;;;;;;59.10;3.60;;;;;;;;;;5072195;28;20483;-67
2022/09/05 06:17:53;;;;;;;60.77;3.47;;;;;;;;;;5069935;28;20452;-67
2022/09/05 06:20:41;;;;;;;61.77;4.50;;;;;;;;;;5041218;28;20459;-66
2022/09/05 06:23:19;;;;;;;60.87;4.53;;;;;;;;;;5072099;28;20470;-67
2022/09/05 06:26:04;;;;;;;59.43;3.77;;;;;;;;;;5072138;28;20440;-66
2022/09/05 06:28:37;;;;;;;59.23;3.53;;;;;;;;;;5071701;28;20447;-66
2022/09/05 06:31:22;;;;;;;60.17;4.30;;;;;;;;;;5072398;28;20445;-66
2022/09/05 06:33:56;;;;;;;59.30;3.90;;;;;;;;;;5071995;28;20473;-66
2022/09/05 06:36:29;;;;;;;59.27;3.67;;;;;;;;;;5071594;28;20489;-66
2022/09/05 06:39:04;;;;;;;59.47;3.57;;;;;;;;;;5071169;28;20445;-66
2022/09/05 06:41:37;;;;;;;60.37;4.23;;;;;;;;;;5072030;28;20446;-66
2022/09/05 06:44:21;;;;;;;59.30;3.63;;;;;;;;;;5071769;28;20470;-67
2022/09/05 06:46:50;;;;;;;59.77;3.90;;;;;;;;;;5071909;28;20816;-67
2022/09/05 06:49:19;;;;;;;61.70;3.90;;;;;;;;;;5071215;28;20544;-67
2022/09/05 06:52:05;;;;;;;60.33;3.70;;;;;;;;;;5071753;28;20450;-66
2022/09/05 06:54:49;;;;;;;60.37;4.20;;;;;;;;;;5071512;28;20957;-66
2022/09/05 06:57:29;;;;;;;59.40;3.73;;;;;;;;;;5040527;28;20455;-67
2022/09/05 07:00:05;;;;;;;69.03;4.50;;;;;;;;;;5071208;28;20445;-67
2022/09/05 07:02:34;;;;;;;61.77;3.97;;;;;;;;;;5071846;28;20476;-67
2022/09/05 07:05:07;;;;;;;59.20;3.63;;;;;;;;;;5071522;28;20529;-67
2022/09/05 07:07:37;;;;;;;59.70;4.40;;;;;;;;;;5071474;28;20529;-66
2022/09/05 07:10:06;;;;;;;58.97;3.60;;;;;;;;;;5071013;28;20475;-67
2022/09/05 07:12:38;;;;;;;59.07;3.40;;;;;;;;;;5071253;28;20475;-67
2022/09/05 07:15:12;;;;;;;58.87;3.40;;;;;;;;;;5071164;28;20541;-66
2022/09/05 07:17:47;;;;;;;58.87;3.43;;;;;;;;;;5069081;28;20458;-66
2022/09/05 07:20:20;;;;;;;60.37;3.97;;;;;;;;;;5068237;28;20461;-66
2022/09/05 07:22:51;;;;;;;58.83;3.03;;;;;;;;;;5069405;28;20471;-66
2022/09/05 07:25:19;;;;;;;60.00;3.60;;;;;;;;;;5070081;28;20816;-63
2022/09/05 07:27:52;;;;;;;59.17;3.80;;;;;;;;;;5070404;28;20455;-63
2022/09/05 07:30:20;;;;;;;59.47;3.23;;;;;;;;;;5071496;28;20450;-64
2022/09/05 07:32:49;;;;;;;59.03;3.63;;;;;;;;;;5070970;28;20470;-63
2022/09/05 07:35:19;;;;;;;59.23;3.20;;;;;;;;;;5071003;28;20490;-63
2022/09/05 07:37:47;;;;;;;59.30;3.60;;;;;;;;;;5071645;28;20444;-64
2022/09/05 07:40:15;;;;;;;60.17;4.00;;;;;;;;;;5070671;28;20819;-64
2022/09/05 07:42:45;;;;;;;62.10;3.83;;;;;;;;;;5070988;28;20475;-63
2022/09/05 07:45:13;;;;;;;59.10;3.03;;;;;;;;;;5071011;28;20440;-63
2022/09/05 07:47:43;;;;;;;59.20;3.20;;;;;;;;;;5070644;28;20836;-64
2022/09/05 07:50:12;;;;;;;59.13;3.53;;;;;;;;;;5070642;28;20830;-64
2022/09/05 07:52:41;;;;;;;59.87;3.53;;;;;;;;;;5071040;28;20514;-64
2022/09/05 07:55:17;;;;;;;58.77;3.27;;;;;;;;;;5074672;28;20529;-64
2022/09/05 07:57:46;;;;;;;59.00;3.20;;;;;;;;;;5074481;28;20457;-64
2022/09/05 08:00:19;;;;;;;59.17;3.00;;;;;;;;;;5073922;28;20824;-64
2022/09/05 08:02:47;;;;;;;59.50;4.10;;;;;;;;;;5074243;28;20979;-64
2022/09/05 08:05:15;;;;;;;59.17;3.60;;;;;;;;;;5074406;28;20443;-64
2022/09/05 08:07:44;;;;;;;59.10;2.73;;;;;;;;;;5074666;28;20458;-64
2022/09/05 08:10:12;;;;;;;59.17;3.10;;;;;;;;;;5074070;28;20886;-64
2022/09/05 08:12:41;;;;;;;58.47;2.77;;;;;;;;;;5073666;28;20463;-64
2022/09/05 08:15:09;;;;;;;58.80;2.90;;;;;;;;;;5073958;28;20447;-64
2022/09/05 08:17:40;;;;;;;59.00;3.10;;;;;;;;;;5073948;28;20451;-64
2022/09/05 08:20:17;;;;;;;58.57;3.10;;;;;;;;;;5073814;28;20455;-64
2022/09/05 08:22:47;;;;;;;58.27;3.23;;;;;;;;;;5073987;28;20467;-64
2022/09/05 08:25:16;;;;;;;58.80;2.77;;;;;;;;;;5074006;28;20455;-64
2022/09/05 08:27:53;;;;;;;59.07;3.53;;;;;;;;;;5074182;28;20542;-64
2022/09/05 08:30:20;;;;;;;58.77;3.27;;;;;;;;;;5053511;28;20444;-64
2022/09/05 08:32:49;;;;;;;59.00;3.07;;;;;;;;;;5053627;28;20559;-64
2022/09/05 08:35:22;;;;;;;58.87;3.20;;;;;;;;;;5053630;28;20466;-64
2022/09/05 08:37:51;;;;;;;58.80;3.33;;;;;;;;;;5053711;28;20869;-64
2022/09/05 08:40:25;;;;;;;57.77;2.77;;;;;;;;;;5053433;28;20542;-64
2022/09/05 08:42:57;;;;;;;58.57;3.00;;;;;;;;;;5053676;28;20506;-64
2022/09/05 08:45:26;;;;;;;58.63;3.10;;;;;;;;;;5053587;28;20448;-64
2022/09/05 08:47:55;;;;;;;58.50;2.70;;;;;;;;;;5053634;28;20444;-64
2022/09/05 08:50:26;;;;;;;58.07;3.03;;;;;;;;;;5053035;28;20463;-64
2022/09/05 08:52:56;;;;;;;58.37;2.73;;;;;;;;;;5053097;28;20468;-64
2022/09/05 08:55:27;;;;;;;58.40;2.77;;;;;;;;;;5053124;28;20452;-64
2022/09/05 08:58:00;;;;;;;57.87;2.83;;;;;;;;;;5053491;28;20510;-64
2022/09/05 09:00:29;;;;;;;58.10;2.87;;;;;;;;;;5063886;28;20477;-64
2022/09/05 09:03:02;;;;;;;58.40;2.60;;;;;;;;;;5073136;28;20474;-64
2022/09/05 09:05:40;;;;;;;58.27;3.07;;;;;;;;;;5073159;28;20448;-64
2022/09/05 09:08:13;;;;;;;60.07;3.03;;;;;;;;;;5073217;28;20451;-64
2022/09/05 09:10:45;;;;;;;58.07;2.50;;;;;;;;;;5072760;28;20455;-64
2022/09/05 09:13:31;;;;;;;58.37;2.40;;;;;;;;;;5072634;28;20471;-64
2022/09/05 09:16:05;;;;;;;58.40;3.13;;;;;;;;;;5073276;28;20510;-64
2022/09/05 09:18:38;;;;;;;58.37;2.80;;;;;;;;;;5072734;28;20455;-64
2022/09/05 09:21:22;;;;;;;57.73;2.43;;;;;;;;;;5072490;28;21026;-64
2022/09/05 09:23:51;;;;;;;58.00;2.60;;;;;;;;;;5072701;28;20467;-64
2022/09/05 09:26:20;;;;;;;58.10;2.60;;;;;;;;;;5072843;28;20526;-64
2022/09/05 09:28:49;;;;;;;58.70;3.20;;;;;;;;;;5072151;28;20451;-64
2022/09/05 09:31:19;;;;;;;58.37;2.80;;;;;;;;;;5069934;28;20822;-64
2022/09/05 09:33:49;;;;;;;57.97;2.73;;;;;;;;;;5072148;28;21010;-64
2022/09/05 09:36:31;;;;;;;57.90;2.53;;;;;;;;;;5072517;28;20526;-64
2022/09/05 09:39:09;;;;;;;58.53;2.77;;;;;;;;;;5038985;28;20447;-64
2022/09/05 09:41:44;;;;;;;57.80;2.27;;;;;;;;;;5072689;28;20443;-64
2022/09/05 09:44:35;;;;;;;58.83;2.70;;;;;;;;;;5072293;28;20532;-64
2022/09/05 09:47:05;;;;;;;58.30;2.80;;;;;;;;;;5072545;28;20458;-64
2022/09/05 09:49:44;;;;;;;58.30;2.60;;;;;;;;;;5071917;28;20456;-64
2022/09/05 09:52:30;;;;;;;57.73;2.20;;;;;;;;;;5072115;28;20961;-64
2022/09/05 09:55:16;;;;;;;58.10;2.63;;;;;;;;;;5072032;28;20447;-65
2022/09/05 09:58:02;;;;;;;58.03;2.50;;;;;;;;;;5072242;28;20486;-65
2022/09/05 10:00:34;;;;;;;58.87;2.67;;;;;;;;;;5072095;28;21024;-65
2022/09/05 10:03:26;;;;;;;57.70;2.30;;;;;;;;;;5069272;28;20475;-65
2022/09/05 10:05:58;;;;;;;57.30;2.10;;;;;;;;;;5071788;28;20443;-65
2022/09/05 10:08:34;;;;;;;57.37;2.20;;;;;;;;;;5071995;28;20759;-65
2022/09/05 10:11:12;;;;;;;57.30;2.43;;;;;;;;;;5071862;28;20459;-65
2022/09/05 10:13:54;;;;;;;56.87;1.97;;;;;;;;;;5071310;28;20889;-65
2022/09/05 10:16:40;;;;;;;56.77;1.93;;;;;;;;;;5071781;28;20483;-65
2022/09/05 10:19:23;;;;;;;56.90;2.23;;;;;;;;;;5070962;28;20461;-65
2022/09/05 10:22:01;;;;;;;56.67;2.03;;;;;;;;;;5071387;28;20454;-65
2022/09/05 10:24:45;;;;;;;56.30;2.00;;;;;;;;;;5071666;28;21011;-65
2022/09/05 10:27:18;;;;;;;56.23;1.90;;;;;;;;;;5071789;28;20439;-65
2022/09/05 10:30:05;;;;;;;56.63;2.10;;;;;;;;;;5071288;28;20450;-65
2022/09/05 10:32:39;;;;;;;56.37;2.20;;;;;;;;;;5071725;28;20463;-65
2022/09/05 10:35:12;;;;;;;56.57;2.20;;;;;;;;;;5069542;28;20814;-65
2022/09/05 10:37:41;;;;;;;56.30;1.97;;;;;;;;;;5071690;28;20483;-65
2022/09/05 10:40:11;;;;;;;56.70;2.23;;;;;;;;;;5071400;28;20936;-65
2022/09/05 10:42:42;;;;;;;56.23;1.87;;;;;;;;;;5071096;28;20482;-65
2022/09/05 10:45:14;;;;;;;56.47;2.23;;;;;;;;;;5071596;28;20448;-65
2022/09/05 10:47:47;;;;;;;56.23;2.20;;;;;;;;;;5071621;28;20469;-65
2022/09/05 10:50:21;;;;;;;56.90;2.40;;;;;;;;;;5071113;28;20884;-66
2022/09/05 10:53:00;;;;;;;56.67;2.50;;;;;;;;;;5071337;28;20467;-66
2022/09/05 10:55:33;;;;;;;56.17;1.97;;;;;;;;;;5071673;28;20443;-66
2022/09/05 10:58:06;;;;;;;56.27;2.00;;;;;;;;;;5071571;28;20478;-65
2022/09/05 11:00:51;;;;;;;57.23;2.87;;;;;;;;;;5071068;28;20447;-65
2022/09/05 11:03:22;;;;;;;56.20;1.70;;;;;;;;;;5071266;28;20470;-65
2022/09/05 11:05:53;;;;;;;56.97;2.20;;;;;;;;;;5069868;28;20530;-65
2022/09/05 11:08:24;;;;;;;57.23;2.10;;;;;;;;;;5051367;28;20446;-65
2022/09/05 11:10:54;;;;;;;56.87;2.00;;;;;;;;;;5051096;28;20449;-65
2022/09/05 11:13:28;;;;;;;56.77;2.23;;;;;;;;;;5051520;28;20472;-65
2022/09/05 11:15:59;;;;;;;56.97;2.23;;;;;;;;;;5050710;28;20817;-65
2022/09/05 11:18:42;;;;;;;56.10;1.90;;;;;;;;;;5051385;28;20531;-65
2022/09/05 11:21:11;;;;;;;56.43;2.20;;;;;;;;;;5051245;28;20459;-65
2022/09/05 11:23:40;;;;;;;56.20;1.87;;;;;;;;;;5051083;28;20464;-65
2022/09/05 11:26:15;;;;;;;56.30;1.97;;;;;;;;;;5051814;28;20808;-65
2022/09/05 11:28:47;;;;;;;56.43;2.23;;;;;;;;;;5055173;28;20451;-65
2022/09/05 11:31:17;;;;;;;56.07;1.97;;;;;;;;;;5054627;28;20826;-65
2022/09/05 11:33:54;;;;;;;56.57;1.83;;;;;;;;;;5053876;28;20467;-65
2022/09/05 11:36:24;;;;;;;56.77;2.43;;;;;;;;;;5054617;28;20458;-65
2022/09/05 11:39:03;;;;;;;56.30;1.87;;;;;;;;;;5065156;28;20453;-65
2022/09/05 11:41:56;;;;;;;56.80;2.37;;;;;;;;;;5074851;28;20457;-66
2022/09/05 11:44:34;;;;;;;56.13;1.90;;;;;;;;;;5074711;28;20843;-65
2022/09/05 11:47:22;;;;;;;57.57;1.80;;;;;;;;;;5074332;28;20479;-65
2022/09/05 11:50:03;;;;;;;56.47;2.00;;;;;;;;;;5048983;28;20447;-65
2022/09/05 11:52:50;;;;;;;56.47;2.00;;;;;;;;;;5074612;28;20465;-65
2022/09/05 11:55:45;;;;;;;58.80;2.37;;;;;;;;;;5074675;28;20845;-65
2022/09/05 11:58:29;;;;;;;56.67;1.93;;;;;;;;;;5074481;28;20451;-65
2022/09/05 12:01:04;;;;;;;56.67;2.20;;;;;;;;;;5043481;28;20443;-65
2022/09/05 12:03:51;;;;;;;56.50;1.87;;;;;;;;;;5074405;28;20556;-65
2022/09/05 12:06:30;;;;;;;57.10;2.00;;;;;;;;;;5074648;28;20451;-65
2022/09/05 12:09:01;;;;;;;56.60;1.90;;;;;;;;;;5074335;28;20455;-65
2022/09/05 12:11:36;;;;;;;56.27;2.00;;;;;;;;;;5072155;28;20454;-65
2022/09/05 12:14:07;;;;;;;56.57;2.17;;;;;;;;;;5074000;28;20553;-65
2022/09/05 12:16:43;;;;;;;56.67;2.10;;;;;;;;;;5073732;28;20520;-65
2022/09/05 12:19:15;;;;;;;56.60;2.00;;;;;;;;;;5073927;28;20543;-65
2022/09/05 12:21:48;;;;;;;56.60;2.40;;;;;;;;;;5074013;28;20848;-65
2022/09/05 12:24:21;;;;;;;56.60;2.00;;;;;;;;;;5073952;28;20546;-65
2022/09/05 12:26:54;;;;;;;56.20;2.00;;;;;;;;;;5073686;28;20479;-65
2022/09/05 12:29:23;;;;;;;56.27;2.07;;;;;;;;;;5073668;28;20479;-66
2022/09/05 12:31:52;;;;;;;56.20;2.10;;;;;;;;;;5073780;28;20444;-66
2022/09/05 12:34:36;;;;;;;56.37;2.50;;;;;;;;;;5073934;28;20463;-66
2022/09/05 12:37:07;;;;;;;57.80;2.33;;;;;;;;;;5072812;28;20447;-66
2022/09/05 12:39:38;;;;;;;56.30;2.10;;;;;;;;;;5073612;28;20454;-66
2022/09/05 12:42:08;;;;;;;56.30;2.00;;;;;;;;;;5071079;28;20448;-66
2022/09/05 12:44:41;;;;;;;56.20;2.13;;;;;;;;;;5073786;28;20868;-66
2022/09/05 12:47:10;;;;;;;56.10;2.33;;;;;;;;;;5073570;28;20491;-65
2022/09/05 12:49:38;;;;;;;55.87;2.20;;;;;;;;;;5072972;28;20542;-66
2022/09/05 12:52:11;;;;;;;57.30;2.83;;;;;;;;;;5073486;28;20855;-66
2022/09/05 12:54:43;;;;;;;56.23;2.40;;;;;;;;;;5073588;28;20542;-66
2022/09/05 12:57:13;;;;;;;55.73;2.00;;;;;;;;;;5073365;28;20453;-66
2022/09/05 12:59:44;;;;;;;56.00;1.90;;;;;;;;;;5073123;28;20454;-66
2022/09/05 13:02:14;;;;;;;56.40;2.37;;;;;;;;;;5073675;28;20440;-66
2022/09/05 13:04:43;;;;;;;55.97;1.90;;;;;;;;;;5073513;28;20947;-65
2022/09/05 13:07:16;;;;;;;56.40;2.37;;;;;;;;;;5073411;28;20847;-65
2022/09/05 13:09:44;;;;;;;56.33;2.30;;;;;;;;;;5072798;28;20816;-65
2022/09/05 13:12:15;;;;;;;56.77;2.23;;;;;;;;;;5070510;28;20452;-65
2022/09/05 13:14:51;;;;;;;56.40;2.10;;;;;;;;;;5072692;28;20939;-66
2022/09/05 13:17:19;;;;;;;56.20;2.10;;;;;;;;;;5072864;28;20483;-65
2022/09/05 13:19:50;;;;;;;55.93;2.00;;;;;;;;;;5072714;28;20447;-65
2022/09/05 13:22:21;;;;;;;56.20;2.20;;;;;;;;;;5072691;28;20435;-65
2022/09/05 13:24:51;;;;;;;56.07;2.00;;;;;;;;;;5073326;28;20448;-65
2022/09/05 13:27:22;;;;;;;57.03;2.53;;;;;;;;;;5072422;28;20570;-65
2022/09/05 13:29:52;;;;;;;56.70;2.27;;;;;;;;;;5072517;28;20772;-65
2022/09/05 13:32:23;;;;;;;56.60;2.30;;;;;;;;;;5072749;28;20447;-65
2022/09/05 13:34:54;;;;;;;56.70;2.30;;;;;;;;;;5072512;28;20446;-65
2022/09/05 13:37:25;;;;;;;56.70;2.30;;;;;;;;;;5072420;28;20463;-65
2022/09/05 13:39:54;;;;;;;56.47;2.10;;;;;;;;;;5072451;28;20436;-65
2022/09/05 13:42:23;;;;;;;56.50;2.00;;;;;;;;;;5072431;28;20471;-65
2022/09/05 13:44:53;;;;;;;57.63;2.17;;;;;;;;;;5069853;28;20451;-65
2022/09/05 13:47:31;;;;;;;56.87;2.43;;;;;;;;;;5072211;28;20994;-65
2022/09/05 13:50:06;;;;;;;56.40;2.00;;;;;;;;;;5070912;28;20800;-65
2022/09/05 13:52:39;;;;;;;56.80;2.30;;;;;;;;;;5072227;28;20469;-65
2022/09/05 13:55:14;;;;;;;56.47;2.57;;;;;;;;;;5072186;28;20443;-65
2022/09/05 13:57:44;;;;;;;56.97;2.47;;;;;;;;;;5071507;28;20440;-65
2022/09/05 14:00:29;;;;;;;60.77;2.20;;;;;;;;;;5071733;28;20539;-65
2022/09/05 14:03:18;;;;;;;56.20;2.10;;;;;;;;;;5041401;28;20823;-65
2022/09/05 14:05:49;;;;;;;56.57;2.40;;;;;;;;;;5072392;28;20459;-65
2022/09/05 14:08:32;;;;;;;56.27;2.03;;;;;;;;;;5072094;28;20483;-65
2022/09/05 14:11:08;;;;;;;56.60;2.37;;;;;;;;;;5069506;28;20461;-65
2022/09/05 14:13:46;;;;;;;56.30;2.10;;;;;;;;;;5071927;28;20473;-65
2022/09/05 14:16:15;;;;;;;56.20;2.03;;;;;;;;;;5071620;28;20453;-65
2022/09/05 14:21:27;;;;;;;56.70;2.20;;;;;;;;;;5071424;28;20469;-66
2022/09/05 14:23:56;;;;;;;56.57;2.07;;;;;;;;;;5071744;28;20826;-66
2022/09/05 14:26:31;;;;;;;56.20;2.13;;;;;;;;;;5071264;28;20443;-65
2022/09/05 14:29:02;;;;;;;57.47;2.37;;;;;;;;;;5071118;28;20493;-65
2022/09/05 14:31:33;;;;;;;56.20;2.17;;;;;;;;;;5071634;28;20458;-66
2022/09/05 14:34:14;;;;;;;56.40;2.07;;;;;;;;;;5071323;28;20467;-65
2022/09/05 14:36:47;;;;;;;56.60;2.43;;;;;;;;;;5071609;28;20455;-65
2022/09/05 14:39:38;;;;;;;56.53;2.40;;;;;;;;;;5071302;28;20452;-65
2022/09/05 14:42:26;;;;;;;56.30;2.23;;;;;;;;;;5015020;28;20446;-65
2022/09/05 14:45:18;;;;;;;56.40;2.00;;;;;;;;;;5045603;28;20456;-65
2022/09/05 14:47:52;;;;;;;56.50;2.00;;;;;;;;;;5036531;28;20999;-65
2022/09/05 14:50:28;;;;;;;56.90;2.20;;;;;;;;;;5051416;28;20454;-65
2022/09/05 14:53:00;;;;;;;56.80;2.30;;;;;;;;;;5051104;28;20537;-65
2022/09/05 14:55:27;;;;;;;56.67;2.30;;;;;;;;;;5051452;28;20459;-65
2022/09/05 14:57:55;;;;;;;57.10;2.87;;;;;;;;;;5051802;28;20444;-65
2022/09/05 15:00:22;;;;;;;56.70;2.10;;;;;;;;;;5052382;28;20448;-65
2022/09/05 15:02:52;;;;;;;56.73;2.33;;;;;;;;;;5055669;28;20472;-65
2022/09/05 15:05:21;;;;;;;56.47;2.07;;;;;;;;;;5055593;28;20534;-65
2022/09/05 15:07:49;;;;;;;56.70;2.23;;;;;;;;;;5055544;28;20511;-65
2022/09/05 15:10:31;;;;;;;56.67;2.00;;;;;;;;;;5055184;28;21047;-65
2022/09/05 15:13:00;;;;;;;57.10;2.37;;;;;;;;;;5055135;28;20476;-65
2022/09/05 15:15:29;;;;;;;56.90;2.40;;;;;;;;;;5067821;28;20541;-65